createdAt,value
2022-10-10T00:02:31.164Z,5.80
2022-10-10T00:05:17.431Z,5.77
2022-10-10T00:08:04.357Z,5.10
2022-10-10T00:10:50.934Z,5.67
2022-10-10T00:13:37.730Z,5.20
2022-10-10T00:16:24.140Z,5.40
2022-10-10T00:19:10.647Z,5.23
2022-10-10T00:21:56.975Z,5.50
2022-10-10T00:24:43.166Z,5.63
2022-10-10T00:27:29.401Z,5.60
2022-10-10T00:30:16.089Z,5.17
2022-10-10T00:33:02.214Z,4.97
2022-10-10T00:35:48.917Z,5.17
2022-10-10T00:38:35.628Z,4.97
2022-10-10T00:41:22.269Z,5.47
2022-10-10T00:44:14.573Z,5.37
2022-10-10T00:47:01.118Z,5.50
2022-10-10T00:49:47.448Z,5.23
2022-10-10T00:52:33.638Z,4.63
2022-10-10T00:55:20.275Z,5.13
2022-10-10T00:58:08.798Z,5.03
2022-10-10T01:00:55.291Z,5.10
2022-10-10T01:03:41.494Z,4.73
2022-10-10T01:06:28.887Z,5.03
2022-10-10T01:09:15.242Z,5.03
2022-10-10T01:12:26.304Z,4.70
2022-10-10T01:15:42.950Z,4.60
2022-10-10T01:18:35.225Z,4.67
2022-10-10T01:22:05.621Z,5.30
2022-10-10T01:25:07.869Z,5.00
2022-10-10T01:28:02.040Z,4.43
2022-10-10T01:30:48.881Z,4.17
2022-10-10T01:34:06.281Z,4.77
2022-10-10T01:37:04.974Z,5.27
2022-10-10T01:40:13.443Z,4.53
2022-10-10T01:43:04.055Z,4.00
2022-10-10T01:45:52.772Z,5.83
2022-10-10T01:48:40.743Z,5.07
2022-10-10T01:51:51.290Z,5.00
2022-10-10T01:54:52.890Z,4.40
2022-10-10T01:57:51.152Z,5.20
2022-10-10T02:01:14.046Z,4.90
2022-10-10T02:04:20.880Z,4.80
2022-10-10T02:07:14.831Z,4.47
2022-10-10T02:10:04.065Z,4.87
2022-10-10T02:12:51.506Z,4.30
2022-10-10T02:15:44.219Z,4.77
2022-10-10T02:18:34.673Z,4.57
2022-10-10T02:21:22.468Z,5.93
2022-10-10T02:24:12.019Z,5.13
2022-10-10T02:27:08.922Z,4.73
2022-10-10T02:29:58.116Z,4.43
2022-10-10T02:32:49.947Z,5.53
2022-10-10T02:35:41.814Z,5.23
2022-10-10T02:38:30.364Z,5.17
2022-10-10T02:41:18.503Z,4.60
2022-10-10T02:44:05.058Z,5.30
2022-10-10T02:46:51.519Z,4.50
2022-10-10T02:49:40.246Z,6.37
2022-10-10T02:52:26.709Z,5.70
2022-10-10T02:55:13.382Z,4.30
2022-10-10T02:57:59.881Z,4.43
2022-10-10T03:00:46.138Z,4.20
2022-10-10T03:03:32.629Z,4.70
2022-10-10T03:06:19.057Z,5.10
2022-10-10T03:09:05.905Z,4.60
2022-10-10T03:11:51.990Z,4.60
2022-10-10T03:14:38.218Z,4.20
2022-10-10T03:17:24.411Z,4.90
2022-10-10T03:20:11.469Z,4.30
2022-10-10T03:22:57.839Z,4.83
2022-10-10T03:25:44.374Z,5.10
2022-10-10T03:28:30.757Z,5.37
2022-10-10T03:31:17.017Z,4.70
2022-10-10T03:34:03.276Z,4.40
2022-10-10T03:36:49.304Z,5.37
2022-10-10T03:39:35.617Z,4.20
2022-10-10T03:42:21.725Z,5.03
2022-10-10T03:45:08.636Z,5.87
2022-10-10T03:47:55.129Z,5.33
2022-10-10T03:50:41.773Z,4.53
2022-10-10T03:53:28.041Z,5.53
2022-10-10T03:56:14.467Z,5.23
2022-10-10T03:59:03.585Z,5.07
2022-10-10T04:01:49.886Z,5.80
2022-10-10T04:04:36.194Z,4.63
2022-10-10T04:07:22.257Z,4.70
2022-10-10T04:10:09.645Z,4.70
2022-10-10T04:12:56.217Z,5.13
2022-10-10T04:15:42.226Z,5.70
2022-10-10T04:18:28.620Z,5.63
2022-10-10T04:21:15.200Z,5.30
2022-10-10T04:24:01.660Z,5.67
2022-10-10T04:26:47.893Z,4.80
2022-10-10T04:29:34.094Z,5.10
2022-10-10T04:32:20.312Z,5.13
2022-10-10T04:35:06.734Z,5.00
2022-10-10T04:37:53.521Z,5.03
2022-10-10T04:40:39.589Z,4.93
2022-10-10T04:43:26.126Z,5.90
2022-10-10T04:46:12.378Z,4.83
2022-10-10T04:48:58.460Z,4.57
2022-10-10T04:51:44.928Z,5.20
2022-10-10T04:54:31.325Z,4.47
2022-10-10T04:57:17.915Z,5.30
2022-10-10T05:00:05.782Z,4.63
2022-10-10T05:02:52.297Z,4.50
2022-10-10T05:05:39.689Z,3.97
2022-10-10T05:08:25.952Z,4.97
2022-10-10T05:11:12.126Z,4.73
2022-10-10T05:13:58.627Z,4.90
2022-10-10T05:16:44.945Z,4.70
2022-10-10T05:19:31.314Z,4.90
2022-10-10T05:22:17.718Z,4.90
2022-10-10T05:25:04.178Z,4.50
2022-10-10T05:27:50.647Z,4.77
2022-10-10T05:30:36.711Z,5.37
2022-10-10T05:33:23.183Z,5.63
2022-10-10T05:36:12.733Z,4.90
2022-10-10T05:39:01.771Z,4.90
2022-10-10T05:41:47.925Z,5.77
2022-10-10T05:44:34.184Z,5.27
2022-10-10T05:47:24.135Z,5.10
2022-10-10T05:50:27.453Z,5.77
2022-10-10T05:53:13.827Z,5.97
2022-10-10T05:56:01.990Z,5.50
2022-10-10T05:58:48.178Z,5.30
2022-10-10T06:01:34.471Z,5.10
2022-10-10T06:04:27.681Z,4.80
2022-10-10T06:07:14.330Z,5.00
2022-10-10T06:10:00.742Z,5.90
2022-10-10T06:12:46.929Z,4.77
2022-10-10T06:15:33.609Z,5.80
2022-10-10T06:18:19.766Z,6.00
2022-10-10T06:21:07.788Z,5.57
2022-10-10T06:23:54.466Z,5.03
2022-10-10T06:26:40.697Z,5.37
2022-10-10T06:29:27.739Z,4.93
2022-10-10T06:32:14.078Z,4.77
2022-10-10T06:35:00.593Z,4.27
2022-10-10T06:37:46.739Z,4.57
2022-10-10T06:40:33.409Z,5.57
2022-10-10T06:43:19.630Z,4.50
2022-10-10T06:46:06.123Z,5.10
2022-10-10T06:48:52.586Z,4.47
2022-10-10T06:51:40.104Z,5.83
2022-10-10T06:54:26.229Z,6.10
2022-10-10T06:57:12.915Z,5.33
2022-10-10T06:59:59.001Z,4.80
2022-10-10T07:02:45.619Z,5.20
2022-10-10T07:05:32.201Z,6.40
2022-10-10T07:08:19.469Z,5.23
2022-10-10T07:11:07.282Z,4.97
2022-10-10T07:13:54.129Z,4.80
2022-10-10T07:16:40.645Z,4.80
2022-10-10T07:19:28.360Z,6.20
2022-10-10T07:22:14.446Z,4.83
2022-10-10T07:25:00.915Z,4.40
2022-10-10T07:27:47.044Z,4.63
2022-10-10T07:30:34.211Z,4.37
2022-10-10T07:33:20.406Z,4.67
2022-10-10T07:36:07.015Z,4.60
2022-10-10T07:38:54.680Z,4.27
2022-10-10T07:41:40.823Z,4.73
2022-10-10T07:44:30.194Z,4.73
2022-10-10T07:47:18.353Z,4.47
2022-10-10T07:50:06.318Z,4.57
2022-10-10T07:52:52.790Z,4.70
2022-10-10T07:55:42.954Z,6.07
2022-10-10T07:58:29.558Z,5.00
2022-10-10T08:01:15.817Z,4.90
2022-10-10T08:04:02.328Z,5.10
2022-10-10T08:06:48.730Z,4.73
2022-10-10T08:09:35.184Z,4.90
2022-10-10T08:12:21.423Z,5.67
2022-10-10T08:15:08.264Z,5.50
2022-10-10T08:17:54.535Z,5.60
2022-10-10T08:20:40.968Z,4.87
2022-10-10T08:23:27.910Z,5.17
2022-10-10T08:26:16.035Z,4.90
2022-10-10T08:29:02.482Z,4.50
2022-10-10T08:31:49.069Z,5.50
2022-10-10T08:34:35.714Z,5.13
2022-10-10T08:37:24.740Z,4.63
2022-10-10T08:40:19.702Z,5.27
2022-10-10T08:43:09.601Z,4.73
2022-10-10T08:45:58.787Z,4.80
2022-10-10T08:48:46.896Z,4.67
2022-10-10T08:51:33.678Z,5.23
2022-10-10T08:54:23.426Z,5.40
2022-10-10T08:57:29.145Z,7.00
2022-10-10T09:00:19.890Z,4.90
2022-10-10T09:03:20.478Z,4.70
2022-10-10T09:06:21.741Z,5.47
2022-10-10T09:09:26.365Z,5.13
2022-10-10T09:12:44.182Z,5.87
2022-10-10T09:15:51.974Z,4.50
2022-10-10T09:19:03.617Z,5.00
2022-10-10T09:21:57.818Z,5.07
2022-10-10T09:24:52.883Z,5.17
2022-10-10T09:27:42.205Z,4.90
2022-10-10T09:30:34.156Z,5.27
2022-10-10T09:33:23.409Z,6.27
2022-10-10T09:36:15.893Z,4.73
2022-10-10T09:39:06.682Z,5.43
2022-10-10T09:41:59.829Z,5.10
2022-10-10T09:44:46.412Z,5.10
2022-10-10T09:47:33.386Z,4.90
2022-10-10T09:50:19.847Z,4.57
2022-10-10T09:53:06.130Z,4.63
2022-10-10T09:55:53.779Z,4.57
2022-10-10T09:58:43.937Z,4.40
2022-10-10T10:01:32.713Z,3.97
2022-10-10T10:04:28.692Z,3.70
2022-10-10T10:07:33.292Z,3.40
2022-10-10T10:10:23.502Z,3.37
2022-10-10T10:13:18.214Z,3.03
2022-10-10T10:16:13.429Z,3.40
2022-10-10T10:19:00.825Z,3.40
2022-10-10T10:21:50.276Z,4.00
2022-10-10T10:24:37.040Z,3.90
2022-10-10T10:27:25.985Z,3.80
2022-10-10T10:30:25.212Z,3.77
2022-10-10T10:33:25.069Z,3.40
2022-10-10T10:36:17.452Z,3.30
2022-10-10T10:39:39.388Z,3.40
2022-10-10T10:42:54.794Z,3.77
2022-10-10T10:45:50.963Z,3.40
2022-10-10T10:48:45.711Z,3.23
2022-10-10T10:51:47.329Z,3.03
2022-10-10T10:54:51.046Z,3.20
2022-10-10T10:58:10.380Z,3.83
2022-10-10T11:01:38.986Z,3.97
2022-10-10T11:05:20.604Z,3.33
2022-10-10T11:08:21.662Z,3.87
2022-10-10T11:11:41.888Z,3.50
2022-10-10T11:14:54.498Z,2.93
2022-10-10T11:17:52.441Z,3.47
2022-10-10T11:20:58.399Z,3.00
2022-10-10T11:24:10.328Z,3.20
2022-10-10T11:27:04.370Z,3.07
2022-10-10T11:29:57.007Z,2.90
2022-10-10T11:32:58.837Z,2.97
2022-10-10T11:36:17.429Z,2.73
2022-10-10T11:39:16.078Z,2.70
2022-10-10T11:42:18.467Z,2.73
2022-10-10T11:45:13.588Z,3.10
2022-10-10T11:48:21.214Z,2.50
2022-10-10T11:51:22.094Z,2.80
2022-10-10T11:54:19.551Z,2.87
2022-10-10T11:57:13.771Z,2.60
2022-10-10T12:00:07.227Z,2.70
2022-10-10T12:02:53.416Z,2.40
2022-10-10T12:05:48.204Z,2.50
2022-10-10T12:08:48.002Z,2.30
2022-10-10T12:11:50.866Z,2.50
2022-10-10T12:14:41.226Z,2.83
2022-10-10T12:17:46.092Z,2.57
2022-10-10T12:20:37.035Z,2.67
2022-10-10T12:23:30.803Z,2.40
2022-10-10T12:26:20.509Z,2.27
2022-10-10T12:29:10.503Z,2.93
2022-10-10T12:32:15.489Z,2.50
2022-10-10T12:35:01.994Z,4.03
2022-10-10T12:38:26.324Z,2.40
2022-10-10T12:41:15.216Z,2.73
2022-10-10T12:44:04.643Z,2.87
2022-10-10T12:47:17.201Z,2.80
2022-10-10T12:50:21.551Z,2.63
2022-10-10T12:53:13.587Z,2.20
2022-10-10T12:56:01.983Z,3.33
2022-10-10T12:58:50.012Z,2.53
2022-10-10T13:01:44.977Z,2.27
2022-10-10T13:04:31.778Z,2.63
2022-10-10T13:07:20.899Z,2.53
2022-10-10T13:10:18.903Z,2.30
2022-10-10T13:13:14.746Z,3.03
2022-10-10T13:16:13.430Z,4.10
2022-10-10T13:19:00.321Z,2.47
2022-10-10T13:21:47.458Z,2.77
2022-10-10T13:24:33.929Z,2.97
2022-10-10T13:27:22.410Z,2.20
2022-10-10T13:30:20.050Z,2.70
2022-10-10T13:33:18.226Z,2.30
2022-10-10T13:36:07.918Z,2.63
2022-10-10T13:38:55.272Z,2.60
2022-10-10T13:41:45.793Z,3.17
2022-10-10T13:44:47.080Z,2.50
2022-10-10T13:47:46.544Z,2.40
2022-10-10T13:50:54.516Z,2.47
2022-10-10T13:53:43.966Z,2.60
2022-10-10T13:56:38.138Z,2.80
2022-10-10T13:59:24.770Z,3.00
2022-10-10T14:02:18.653Z,2.40
2022-10-10T14:05:07.752Z,2.43
2022-10-10T14:07:55.368Z,3.23
2022-10-10T14:10:41.971Z,2.50
2022-10-10T14:13:30.409Z,2.60
2022-10-10T14:16:20.198Z,2.83
2022-10-10T14:19:19.235Z,2.60
2022-10-10T14:22:05.741Z,3.10
2022-10-10T14:24:52.125Z,2.60
2022-10-10T14:27:39.994Z,2.40
2022-10-10T14:30:26.200Z,2.90
2022-10-10T14:33:14.323Z,2.43
2022-10-10T14:36:01.007Z,2.90
2022-10-10T14:38:47.154Z,2.50
2022-10-10T14:41:33.660Z,2.30
2022-10-10T14:44:19.799Z,2.83
2022-10-10T14:47:07.014Z,2.30
2022-10-10T14:49:53.455Z,2.53
2022-10-10T14:52:40.068Z,2.97
2022-10-10T14:55:26.426Z,2.40
2022-10-10T14:58:18.478Z,3.63
2022-10-10T15:01:05.801Z,2.27
2022-10-10T15:03:52.486Z,2.57
2022-10-10T15:06:55.481Z,2.07
2022-10-10T15:12:52.710Z,2.70
2022-10-10T15:15:39.922Z,2.17
2022-10-10T15:18:52.889Z,2.50
2022-10-10T15:21:32.217Z,2.50
2022-10-10T15:24:18.365Z,2.63
2022-10-10T15:27:04.685Z,3.00
2022-10-10T15:29:50.877Z,2.00
2022-10-10T15:32:39.081Z,2.70
2022-10-10T15:35:26.232Z,2.77
2022-10-10T15:38:12.612Z,3.13
2022-10-10T15:41:01.099Z,2.50
2022-10-10T15:43:52.049Z,3.00
2022-10-10T15:46:39.513Z,2.97
2022-10-10T15:49:25.951Z,3.23
2022-10-10T15:52:12.888Z,3.00
2022-10-10T15:54:59.426Z,2.73
2022-10-10T15:57:45.650Z,3.30
2022-10-10T16:00:32.385Z,2.80
2022-10-10T16:03:18.783Z,2.87
2022-10-10T16:06:05.566Z,2.80
2022-10-10T16:09:04.022Z,2.70
2022-10-10T16:11:56.562Z,2.90
2022-10-10T16:14:43.214Z,2.97
2022-10-10T16:17:29.330Z,3.83
2022-10-10T16:20:15.674Z,10.47
2022-10-10T16:23:01.950Z,11.63
2022-10-10T16:25:48.219Z,7.50
2022-10-10T16:28:34.995Z,3.20
2022-10-10T16:31:21.513Z,3.03
2022-10-10T16:34:07.769Z,3.53
2022-10-10T16:36:53.947Z,2.83
2022-10-10T16:39:40.301Z,5.07
2022-10-10T16:42:26.562Z,2.87
2022-10-10T16:45:12.773Z,3.23
2022-10-10T16:47:58.886Z,3.30
2022-10-10T16:50:45.493Z,2.93
2022-10-10T16:53:32.226Z,3.93
2022-10-10T16:56:21.093Z,2.60
2022-10-10T16:59:08.030Z,3.03
2022-10-10T17:01:54.114Z,2.73
2022-10-10T17:04:40.418Z,3.00
2022-10-10T17:07:27.348Z,3.07
2022-10-10T17:10:13.992Z,3.50
2022-10-10T17:13:00.600Z,3.77
2022-10-10T17:15:47.210Z,3.03
2022-10-10T17:18:34.883Z,3.40
2022-10-10T17:21:23.257Z,3.37
2022-10-10T17:24:09.881Z,4.03
2022-10-10T17:26:56.341Z,3.43
2022-10-10T17:29:42.855Z,4.93
2022-10-10T17:32:28.928Z,4.10
2022-10-10T17:35:15.411Z,3.77
2022-10-10T17:38:21.263Z,3.93
2022-10-10T17:41:09.233Z,4.53
2022-10-10T17:43:56.062Z,4.57
2022-10-10T17:46:44.442Z,4.13
2022-10-10T17:49:31.242Z,4.77
2022-10-10T17:52:21.098Z,4.10
2022-10-10T17:55:08.235Z,4.40
2022-10-10T17:57:54.747Z,4.80
2022-10-10T18:00:41.746Z,7.80
2022-10-10T18:03:28.301Z,9.07
2022-10-10T18:06:17.189Z,6.30
2022-10-10T18:09:03.605Z,9.73
2022-10-10T18:11:49.850Z,4.37
2022-10-10T18:14:36.270Z,3.57
2022-10-10T18:17:22.670Z,3.10
2022-10-10T18:20:09.754Z,3.53
2022-10-10T18:23:00.285Z,2.83
2022-10-10T18:25:46.725Z,3.03
2022-10-10T18:28:35.247Z,2.80
2022-10-10T18:31:24.266Z,3.07
2022-10-10T18:34:11.941Z,2.73
2022-10-10T18:36:58.233Z,2.57
2022-10-10T18:39:44.449Z,2.30
2022-10-10T18:42:30.677Z,2.80
2022-10-10T18:45:16.934Z,2.90
2022-10-10T18:48:03.028Z,2.67
2022-10-10T18:50:49.189Z,2.50
2022-10-10T18:53:40.508Z,2.20
2022-10-10T18:56:26.919Z,2.10
2022-10-10T18:59:18.929Z,2.23
2022-10-10T19:02:05.375Z,2.40
2022-10-10T19:04:51.943Z,2.40
2022-10-10T19:07:38.239Z,2.50
2022-10-10T19:10:25.241Z,3.27
2022-10-10T19:13:12.090Z,3.23
2022-10-10T19:16:06.532Z,2.63
2022-10-10T19:18:57.508Z,3.30
2022-10-10T19:21:46.257Z,2.57
2022-10-10T19:24:32.426Z,3.00
2022-10-10T19:27:18.989Z,2.70
2022-10-10T19:30:05.670Z,3.53
2022-10-10T19:32:51.867Z,3.87
2022-10-10T19:35:40.849Z,4.37
2022-10-10T19:38:28.566Z,3.13
2022-10-10T19:41:14.818Z,4.50
2022-10-10T19:44:04.958Z,3.90
2022-10-10T19:46:51.298Z,3.07
2022-10-10T19:49:37.750Z,3.13
2022-10-10T19:52:24.215Z,3.80
2022-10-10T19:55:10.717Z,5.07
2022-10-10T19:57:57.053Z,4.50
2022-10-10T20:00:43.262Z,3.80
2022-10-10T20:03:29.717Z,4.63
2022-10-10T20:06:18.126Z,4.53
2022-10-10T20:09:09.711Z,3.77
2022-10-10T20:11:57.094Z,4.20
2022-10-10T20:14:43.277Z,3.17
2022-10-10T20:17:29.717Z,3.40
2022-10-10T20:20:16.149Z,2.90
2022-10-10T20:23:02.492Z,4.50
2022-10-10T20:25:50.326Z,2.60
2022-10-10T20:28:37.043Z,3.70
2022-10-10T20:31:29.142Z,2.70
2022-10-10T20:34:15.418Z,2.90
2022-10-10T20:37:01.549Z,3.07
2022-10-10T20:39:50.250Z,3.20
2022-10-10T20:42:36.249Z,2.90
2022-10-10T20:45:22.554Z,3.20
2022-10-10T20:48:09.853Z,3.20
2022-10-10T20:51:01.582Z,3.17
2022-10-10T20:53:57.141Z,3.10
2022-10-10T20:56:44.802Z,3.77
2022-10-10T20:59:31.255Z,3.67
2022-10-10T21:02:19.534Z,3.70
2022-10-10T21:05:06.434Z,4.23
2022-10-10T21:07:52.644Z,4.97
2022-10-10T21:10:39.856Z,4.53
2022-10-10T21:13:26.262Z,5.30
2022-10-10T21:16:15.804Z,4.53
2022-10-10T21:19:02.529Z,5.73
2022-10-10T21:21:48.916Z,5.37
2022-10-10T21:24:35.125Z,5.00
2022-10-10T21:27:21.390Z,4.93
2022-10-10T21:30:08.305Z,5.43
2022-10-10T21:32:54.430Z,5.77
2022-10-10T21:35:41.305Z,5.10
2022-10-10T21:38:27.635Z,4.93
2022-10-10T21:41:19.042Z,4.80
2022-10-10T21:44:05.236Z,4.30
2022-10-10T21:46:51.434Z,4.27
2022-10-10T21:49:37.837Z,5.13
2022-10-10T21:52:24.195Z,4.47
2022-10-10T21:55:10.794Z,4.77
2022-10-10T21:57:57.265Z,4.43
2022-10-10T22:00:43.368Z,5.40
2022-10-10T22:03:29.695Z,4.50
2022-10-10T22:06:22.808Z,5.23
2022-10-10T22:09:09.135Z,4.33
2022-10-10T22:11:55.416Z,5.37
2022-10-10T22:14:41.915Z,5.20
2022-10-10T22:17:28.165Z,5.67
2022-10-10T22:20:14.557Z,6.00
2022-10-10T22:23:00.778Z,4.97
2022-10-10T22:25:49.584Z,5.60
2022-10-10T22:28:36.511Z,4.93
2022-10-10T22:31:22.695Z,5.87
2022-10-10T22:34:08.998Z,4.17
2022-10-10T22:36:55.522Z,5.53
2022-10-10T22:39:42.733Z,4.03
2022-10-10T22:42:29.057Z,4.80
2022-10-10T22:45:16.421Z,4.90
2022-10-10T22:48:02.657Z,4.10
2022-10-10T22:51:01.814Z,3.97
2022-10-10T22:53:48.408Z,4.17
2022-10-10T22:56:34.831Z,4.37
2022-10-10T22:59:21.370Z,4.20
2022-10-10T23:02:07.560Z,4.80
2022-10-10T23:04:53.785Z,4.27
2022-10-10T23:07:40.138Z,4.80
2022-10-10T23:10:26.469Z,3.60
2022-10-10T23:13:12.999Z,3.47
2022-10-10T23:15:59.283Z,3.67
2022-10-10T23:18:45.491Z,4.20
2022-10-10T23:21:32.205Z,4.70
2022-10-10T23:24:18.386Z,4.43
2022-10-10T23:27:04.698Z,5.13
2022-10-10T23:29:51.307Z,4.47
2022-10-10T23:32:37.635Z,4.97
2022-10-10T23:35:24.129Z,4.90
2022-10-10T23:38:10.607Z,4.03
2022-10-10T23:40:57.214Z,4.60
2022-10-10T23:43:44.129Z,3.90
2022-10-10T23:46:30.748Z,4.33
2022-10-10T23:49:16.945Z,4.60
2022-10-10T23:52:03.413Z,5.00
2022-10-10T23:54:49.770Z,4.40
2022-10-10T23:57:35.923Z,5.90
